Shelburne Falls, Massachusetts
Current Conditions -  °F | °C
As of 7:52 PM on Friday 24 Oct 2014 (Local Time) from KORE Reporting Station
Overcast Overcast  
Wind Chill: 43°   Ceiling: 2600
Heat Index: 48°   Visibility: 10mi
Dew Point: 41°   Wind: 10mph
Humidity: 77%   Direction: 320°NW
Pressure: 29.76"   Gusts: NA
Location:  42.6°N, 72.74°W
Report Text: KORE 242352Z AUTO 32009KT 10SM OVC026 09/05 A2976 RMK AO2 SLP082 T00890050 10117 20089 53006
Loading
Personal Weather Stations






























Interactive Weather Map New forecast layout! Learn more

10-Day Weather Forecast

Advertisements
Track Severe Weather on mobile